Time;durP1;ratioP1;P1;durP2;ratioP2;P2;SDS_P1;SDS_P2;PMS_P1;PMS_P2;Temp;Humidity;BMP_temperature;BMP_pressure;BME280_temperature;BME280_humidity;BME280_pressure;Samples;Min_cycle;Max_cycle;Signal;HPM_P1;HPM_P2
2022/01/09 00:01:17;;;;;;;4.63;2.05;;;;;;;;;;4939876;28;20614;-78
2022/01/09 00:04:21;;;;;;;6.10;2.65;;;;;;;;;;4997452;28;20125;-79
2022/01/09 00:10:46;;;;;;;;;;;;;;;;;;;;;
2022/01/09 00:13:47;;;;;;;7.95;3.13;;;;;;;;;;5063800;28;20478;-79
2022/01/09 00:16:40;;;;;;;5.82;3.20;;;;;;;;;;5059171;28;20021;-77
2022/01/09 00:19:28;;;;;;;7.47;2.67;;;;;;;;;;5058346;28;20025;-77
2022/01/09 00:25:33;;;;;;;;;;;;;;;;;;;;;
2022/01/09 00:29:12;;;;;;;;;;;;;;;;;;;;;
2022/01/09 00:32:01;;;;;;;6.25;2.63;;;;;;;;;;4962599;28;20045;-79
2022/01/09 00:41:17;;;;;;;4.68;2.45;;;;;;;;;;5028403;28;20048;-80
2022/01/09 00:43:57;;;;;;;6.20;2.50;;;;;;;;;;5056453;28;20490;-78
2022/01/09 00:47:36;;;;;;;6.18;2.55;;;;;;;;;;5077011;22;20044;-79
2022/01/09 00:50:24;;;;;;;7.57;2.58;;;;;;;;;;5019051;28;20052;-79
2022/01/09 00:53:05;;;;;;;6.50;2.72;;;;;;;;;;5031926;28;20047;-79
2022/01/09 00:56:18;;;;;;;;;;;;;;;;;;;;;
2022/01/09 01:02:38;;;;;;;5.88;3.03;;;;;;;;;;5027916;28;20031;-76
2022/01/09 01:05:32;;;;;;;;;;;;;;;;;;;;;
2022/01/09 01:08:00;;;;;;;5.78;2.42;;;;;;;;;;5059427;28;20115;-79
2022/01/09 01:10:40;;;;;;;8.82;2.70;;;;;;;;;;5059601;28;20470;-79
2022/01/09 01:14:08;;;;;;;5.57;2.90;;;;;;;;;;5059638;28;20023;-79
2022/01/09 01:17:20;;;;;;;6.53;2.40;;;;;;;;;;5010419;28;20038;-79
2022/01/09 01:19:48;;;;;;;7.07;2.83;;;;;;;;;;5043720;28;20044;-79
2022/01/09 01:22:14;;;;;;;1.83;1.27;;;;;;;;;;5059782;28;20064;-78
2022/01/09 01:25:23;;;;;;;4.47;2.45;;;;;;;;;;5059301;28;20052;-79
2022/01/09 01:28:02;;;;;;;4.97;2.38;;;;;;;;;;5053233;28;20044;-78
2022/01/09 01:30:38;;;;;;;4.50;2.63;;;;;;;;;;5059477;28;20080;-79
2022/01/09 01:36:43;;;;;;;6.40;2.60;;;;;;;;;;5042659;28;20043;-79
2022/01/09 01:39:47;;;;;;;6.68;2.58;;;;;;;;;;5058052;28;20379;-78
2022/01/09 01:42:37;;;;;;;2.63;1.52;;;;;;;;;;5055897;28;20029;-79
2022/01/09 01:45:32;;;;;;;4.80;2.03;;;;;;;;;;5058375;28;20033;-79
2022/01/09 01:48:05;;;;;;;5.57;2.50;;;;;;;;;;5058792;28;20118;-80
2022/01/09 01:50:47;;;;;;;1.92;1.20;;;;;;;;;;5057644;28;20041;-80
2022/01/09 01:53:20;;;;;;;5.57;2.40;;;;;;;;;;5058149;28;20029;-78
2022/01/09 01:56:19;;;;;;;;;;;;;;;;;;;;;
2022/01/09 01:58:50;;;;;;;5.15;1.88;;;;;;;;;;5058993;28;20009;-78
2022/01/09 02:01:21;;;;;;;11.48;2.35;;;;;;;;;;5057246;28;20117;-79
2022/01/09 02:03:55;;;;;;;2.78;1.55;;;;;;;;;;5058578;28;20043;-78
2022/01/09 02:06:54;;;;;;;2.85;1.45;;;;;;;;;;5057212;28;20387;-79
2022/01/09 02:10:11;;;;;;;3.15;1.88;;;;;;;;;;5058094;28;20017;-78
2022/01/09 02:13:26;;;;;;;2.83;1.92;;;;;;;;;;5036756;28;20029;-78
2022/01/09 02:16:36;;;;;;;;;;;;;;;;;;;;;
2022/01/09 02:19:03;;;;;;;3.50;1.70;;;;;;;;;;5058397;28;20446;-79
2022/01/09 02:21:44;;;;;;;5.45;2.22;;;;;;;;;;5057176;28;20053;-80
2022/01/09 02:24:13;;;;;;;4.05;1.65;;;;;;;;;;5047752;28;20033;-80
2022/01/09 02:26:40;;;;;;;2.75;1.80;;;;;;;;;;5056657;28;20363;-80
2022/01/09 02:29:47;;;;;;;4.30;1.95;;;;;;;;;;5057229;28;20064;-80
2022/01/09 02:35:35;;;;;;;3.58;2.03;;;;;;;;;;5021024;28;20051;-80
2022/01/09 02:38:36;;;;;;;3.58;2.05;;;;;;;;;;5056422;28;20024;-80
2022/01/09 02:41:27;;;;;;;4.15;2.20;;;;;;;;;;5058201;28;20119;-78
2022/01/09 02:43:55;;;;;;;1.40;0.88;;;;;;;;;;5057793;28;20025;-78
2022/01/09 02:47:19;;;;;;;3.88;2.22;;;;;;;;;;5056359;28;20067;-79
2022/01/09 02:53:29;;;;;;;4.57;2.25;;;;;;;;;;4977782;28;20154;-79
2022/01/09 02:56:57;;;;;;;;;;;;;;;;;;;;;
2022/01/09 03:00:21;;;;;;;;;;;;;;;;;;;;;
2022/01/09 03:07:00;;;;;;;6.10;2.60;;;;;;;;;;5052984;28;20032;-80
2022/01/09 03:09:55;;;;;;;5.28;2.30;;;;;;;;;;5058551;28;20086;-80
2022/01/09 03:12:55;;;;;;;4.68;2.50;;;;;;;;;;5058995;28;20025;-80
2022/01/09 03:26:04;;;;;;;;;;;;;;;;;;;;;
2022/01/09 03:28:57;;;;;;;4.47;2.15;;;;;;;;;;4915016;29;20484;-79
2022/01/09 03:32:02;;;;;;;4.63;2.17;;;;;;;;;;4958533;29;20501;-80
2022/01/09 03:38:23;;;;;;;4.38;2.15;;;;;;;;;;5003983;28;20040;-79
2022/01/09 03:55:20;;;;;;;4.85;1.90;;;;;;;;;;4971629;28;20062;-79
2022/01/09 03:58:14;;;;;;;3.72;2.40;;;;;;;;;;5053167;28;20406;-79
2022/01/09 04:01:13;;;;;;;;;;;;;;;;;;;;;
2022/01/09 04:03:39;;;;;;;5.50;1.85;;;;;;;;;;5057254;28;20110;-80
2022/01/09 04:06:56;;;;;;;5.18;2.15;;;;;;;;;;5057112;28;20068;-79
2022/01/09 04:09:38;;;;;;;6.80;2.05;;;;;;;;;;5037933;28;20052;-79
2022/01/09 04:12:18;;;;;;;5.95;2.13;;;;;;;;;;5057636;28;20021;-79
2022/01/09 04:14:56;;;;;;;8.02;2.42;;;;;;;;;;5057873;28;20025;-79
2022/01/09 04:17:34;;;;;;;2.63;1.23;;;;;;;;;;5057288;28;20120;-79
2022/01/09 04:19:59;;;;;;;2.90;1.95;;;;;;;;;;5058872;28;20028;-78
2022/01/09 04:22:27;;;;;;;4.40;1.70;;;;;;;;;;5056029;28;20017;-80
2022/01/09 04:25:13;;;;;;;4.55;1.65;;;;;;;;;;5055489;28;20486;-79
2022/01/09 04:31:39;;;;;;;3.78;1.63;;;;;;;;;;5042987;28;20033;-78
2022/01/09 04:37:48;;;;;;;3.85;2.08;;;;;;;;;;5053541;28;20037;-77
2022/01/09 04:40:21;;;;;;;5.07;2.25;;;;;;;;;;5053679;28;20021;-79
2022/01/09 04:43:05;;;;;;;4.05;2.15;;;;;;;;;;5054221;28;20021;-79
2022/01/09 04:48:56;;;;;;;3.83;1.48;;;;;;;;;;5055057;28;19983;-79
2022/01/09 04:51:30;;;;;;;5.13;2.00;;;;;;;;;;5054351;28;20036;-78
2022/01/09 04:53:55;;;;;;;1.75;1.10;;;;;;;;;;5056768;28;20108;-78
2022/01/09 04:56:28;;;;;;;5.70;2.03;;;;;;;;;;5057148;28;20053;-77
2022/01/09 04:58:56;;;;;;;4.07;1.67;;;;;;;;;;5058332;28;20057;-78
2022/01/09 05:01:28;;;;;;;3.65;1.83;;;;;;;;;;5056424;28;20070;-78
2022/01/09 05:03:54;;;;;;;2.45;1.50;;;;;;;;;;5057806;28;20522;-78
2022/01/09 05:06:22;;;;;;;3.10;1.67;;;;;;;;;;5057378;28;20076;-78
2022/01/09 05:08:47;;;;;;;2.38;1.27;;;;;;;;;;5059037;28;20056;-79
2022/01/09 05:11:15;;;;;;;4.07;2.38;;;;;;;;;;5058956;28;20028;-79
2022/01/09 05:13:54;;;;;;;6.32;2.45;;;;;;;;;;5058440;28;20063;-79
2022/01/09 05:16:20;;;;;;;2.42;1.17;;;;;;;;;;5058774;28;20024;-78
2022/01/09 05:19:01;;;;;;;4.57;2.40;;;;;;;;;;5058284;28;20420;-79
2022/01/09 05:21:39;;;;;;;3.03;1.77;;;;;;;;;;5058226;28;20099;-78
2022/01/09 05:24:17;;;;;;;6.78;2.15;;;;;;;;;;5056522;28;20033;-78
2022/01/09 05:26:42;;;;;;;5.53;2.40;;;;;;;;;;5057799;28;20033;-79
2022/01/09 05:29:07;;;;;;;4.45;2.20;;;;;;;;;;5058338;28;20057;-80
2022/01/09 05:31:48;;;;;;;3.05;1.75;;;;;;;;;;5058855;28;20402;-78
2022/01/09 05:34:24;;;;;;;5.90;2.40;;;;;;;;;;5056103;28;20033;-80
2022/01/09 05:37:42;;;;;;;5.85;2.40;;;;;;;;;;5059171;28;20450;-79
2022/01/09 05:40:29;;;;;;;5.38;2.15;;;;;;;;;;4996364;28;20050;-78
2022/01/09 05:42:55;;;;;;;4.32;1.73;;;;;;;;;;4998877;28;20033;-79
2022/01/09 05:45:20;;;;;;;3.55;2.08;;;;;;;;;;5056745;28;20024;-79
2022/01/09 05:47:49;;;;;;;4.65;2.42;;;;;;;;;;5058144;28;20021;-79
2022/01/09 05:50:24;;;;;;;1.92;1.33;;;;;;;;;;5057776;28;20057;-79
2022/01/09 05:52:49;;;;;;;3.78;1.80;;;;;;;;;;5059274;28;20393;-78
2022/01/09 05:55:14;;;;;;;6.07;2.28;;;;;;;;;;5057006;28;20033;-79
2022/01/09 05:57:42;;;;;;;3.67;1.63;;;;;;;;;;5058066;28;20467;-79
2022/01/09 06:00:08;;;;;;;6.57;2.53;;;;;;;;;;5056561;28;20032;-79
2022/01/09 06:02:33;;;;;;;5.30;1.67;;;;;;;;;;5057558;28;20021;-79
2022/01/09 06:04:58;;;;;;;4.75;2.53;;;;;;;;;;5057777;28;20060;-79
2022/01/09 06:07:23;;;;;;;6.82;3.13;;;;;;;;;;5058591;28;20036;-79
2022/01/09 06:09:49;;;;;;;4.18;2.28;;;;;;;;;;5058674;28;20024;-78
2022/01/09 06:12:14;;;;;;;7.05;3.08;;;;;;;;;;5059396;28;20112;-79
2022/01/09 06:14:39;;;;;;;6.63;2.78;;;;;;;;;;5058062;28;20031;-80
2022/01/09 06:17:05;;;;;;;6.90;3.05;;;;;;;;;;5057949;28;20025;-79
2022/01/09 06:19:30;;;;;;;6.78;2.53;;;;;;;;;;5057418;28;20067;-78
2022/01/09 06:21:55;;;;;;;4.43;2.20;;;;;;;;;;5057252;28;20025;-78
2022/01/09 06:24:20;;;;;;;4.10;2.30;;;;;;;;;;5057718;28;20063;-79
2022/01/09 06:26:45;;;;;;;6.18;3.05;;;;;;;;;;5056799;28;20024;-79
2022/01/09 06:29:12;;;;;;;6.07;2.60;;;;;;;;;;5057332;28;20025;-79
2022/01/09 06:31:38;;;;;;;4.63;2.55;;;;;;;;;;5057089;28;20044;-79
2022/01/09 06:34:03;;;;;;;7.88;3.03;;;;;;;;;;5056994;28;20071;-79
2022/01/09 06:36:28;;;;;;;6.07;3.22;;;;;;;;;;5057480;28;20454;-80
2022/01/09 06:38:54;;;;;;;5.55;1.52;;;;;;;;;;5057636;28;20048;-79
2022/01/09 06:41:20;;;;;;;6.22;2.80;;;;;;;;;;5057180;28;20024;-79
2022/01/09 06:43:45;;;;;;;6.60;2.67;;;;;;;;;;5058323;28;20097;-80
2022/01/09 06:46:10;;;;;;;7.78;2.55;;;;;;;;;;5059756;28;20036;-81
2022/01/09 06:48:36;;;;;;;5.80;3.05;;;;;;;;;;5060742;28;20456;-80
2022/01/09 06:51:01;;;;;;;8.90;2.70;;;;;;;;;;5058056;28;20541;-79
2022/01/09 06:53:26;;;;;;;3.58;1.88;;;;;;;;;;5057819;28;20020;-79
2022/01/09 06:55:51;;;;;;;5.72;2.00;;;;;;;;;;5058293;28;20028;-79
2022/01/09 06:58:18;;;;;;;4.25;1.83;;;;;;;;;;5058660;28;20035;-80
2022/01/09 07:00:45;;;;;;;4.35;2.63;;;;;;;;;;5059390;28;20032;-79
2022/01/09 07:03:11;;;;;;;5.90;2.55;;;;;;;;;;5058855;28;20037;-78
2022/01/09 07:05:36;;;;;;;6.28;2.78;;;;;;;;;;5058439;28;20028;-82
2022/01/09 07:08:01;;;;;;;3.47;2.00;;;;;;;;;;5058234;28;20104;-81
2022/01/09 07:10:27;;;;;;;6.50;3.00;;;;;;;;;;5058512;28;20020;-79
2022/01/09 07:12:52;;;;;;;6.10;2.83;;;;;;;;;;5058431;28;20027;-80
2022/01/09 07:15:17;;;;;;;6.20;3.10;;;;;;;;;;5058033;28;20375;-79
2022/01/09 07:17:42;;;;;;;7.47;2.60;;;;;;;;;;5058812;28;20478;-80
2022/01/09 07:20:08;;;;;;;5.40;2.53;;;;;;;;;;5058825;28;20029;-80
2022/01/09 07:22:34;;;;;;;4.28;2.30;;;;;;;;;;5057888;28;20025;-80
2022/01/09 07:24:59;;;;;;;6.13;2.97;;;;;;;;;;5058300;28;20029;-79
2022/01/09 07:27:24;;;;;;;5.30;2.30;;;;;;;;;;5056992;28;20033;-80
2022/01/09 07:29:49;;;;;;;7.43;3.10;;;;;;;;;;5058538;28;20029;-80
2022/01/09 07:32:15;;;;;;;4.40;2.38;;;;;;;;;;5056501;28;20025;-80
2022/01/09 07:34:40;;;;;;;6.72;2.88;;;;;;;;;;5058193;28;20044;-80
2022/01/09 07:37:30;;;;;;;5.95;2.70;;;;;;;;;;5071704;22;20494;-80
2022/01/09 07:40:15;;;;;;;5.65;2.72;;;;;;;;;;5057005;28;20045;-81
2022/01/09 07:42:46;;;;;;;3.83;2.60;;;;;;;;;;5042105;28;20092;-79
2022/01/09 07:53:22;;;;;;;;;;;;;;;;;;;;;
2022/01/09 08:21:36;;;;;;;3.30;2.08;;;;;;;;;;4984551;28;20026;-79
2022/01/09 08:24:56;;;;;;;;;;;;;;;;;;;;;
2022/01/09 08:27:25;;;;;;;3.60;1.90;;;;;;;;;;4952336;28;20051;-79
2022/01/09 08:30:23;;;;;;;2.78;1.52;;;;;;;;;;5058671;28;20509;-79
2022/01/09 08:33:36;;;;;;;4.55;2.35;;;;;;;;;;5024346;28;20107;-79
2022/01/09 08:36:22;;;;;;;4.85;2.08;;;;;;;;;;5053234;28;20093;-78
2022/01/09 08:39:05;;;;;;;4.28;2.05;;;;;;;;;;5061804;28;20048;-79
2022/01/09 08:42:14;;;;;;;5.22;2.38;;;;;;;;;;5061539;28;20025;-78
2022/01/09 08:45:02;;;;;;;3.22;1.80;;;;;;;;;;5058665;28;20036;-79
2022/01/09 08:47:31;;;;;;;4.20;2.33;;;;;;;;;;5058356;28;20029;-79
2022/01/09 08:49:56;;;;;;;4.82;2.03;;;;;;;;;;5058291;28;20020;-80
2022/01/09 08:53:13;;;;;;;3.70;2.20;;;;;;;;;;5058636;28;20394;-79
2022/01/09 08:56:37;;;;;;;;;;;;;;;;;;;;;
2022/01/09 08:59:05;;;;;;;3.75;2.20;;;;;;;;;;5058852;28;20104;-79
2022/01/09 09:02:29;;;;;;;2.65;1.90;;;;;;;;;;5058749;28;20482;-79
2022/01/09 09:05:20;;;;;;;3.25;1.95;;;;;;;;;;5053418;28;20052;-79
2022/01/09 09:11:28;;;;;;;3.42;1.98;;;;;;;;;;4978039;28;20069;-79
2022/01/09 09:14:33;;;;;;;3.58;2.17;;;;;;;;;;4977950;28;20038;-80
2022/01/09 09:17:42;;;;;;;3.42;2.05;;;;;;;;;;4976650;28;20042;-80
2022/01/09 09:20:07;;;;;;;4.45;2.45;;;;;;;;;;5021349;28;20037;-77
2022/01/09 09:22:37;;;;;;;3.92;2.40;;;;;;;;;;5055229;28;20021;-77
2022/01/09 09:25:03;;;;;;;4.05;2.00;;;;;;;;;;5055510;28;20032;-76
2022/01/09 09:27:40;;;;;;;2.95;1.98;;;;;;;;;;5055057;28;20024;-75
2022/01/09 09:30:14;;;;;;;6.85;2.28;;;;;;;;;;5055086;28;20379;-79
2022/01/09 09:32:40;;;;;;;4.15;2.65;;;;;;;;;;5055264;28;20021;-76
2022/01/09 09:35:06;;;;;;;5.35;2.38;;;;;;;;;;5055258;28;20474;-75
2022/01/09 09:37:32;;;;;;;3.88;2.20;;;;;;;;;;5056001;28;20039;-76
2022/01/09 09:39:57;;;;;;;3.78;2.30;;;;;;;;;;5053570;28;20021;-77
2022/01/09 09:42:23;;;;;;;6.03;2.55;;;;;;;;;;5055132;28;20047;-75
2022/01/09 09:44:48;;;;;;;3.45;2.28;;;;;;;;;;5054872;28;20120;-77
2022/01/09 09:47:18;;;;;;;3.67;2.03;;;;;;;;;;5055528;28;20024;-78
2022/01/09 09:49:43;;;;;;;5.45;1.92;;;;;;;;;;5056241;28;20075;-77
2022/01/09 09:52:08;;;;;;;3.63;2.30;;;;;;;;;;5055138;28;20017;-77
2022/01/09 09:54:33;;;;;;;4.25;2.20;;;;;;;;;;5055307;28;20033;-77
2022/01/09 09:56:59;;;;;;;5.05;2.45;;;;;;;;;;5054588;28;20123;-77
2022/01/09 09:59:25;;;;;;;4.03;2.30;;;;;;;;;;5056634;28;20025;-77
2022/01/09 10:01:50;;;;;;;4.07;2.47;;;;;;;;;;5056050;28;20021;-78
2022/01/09 10:04:16;;;;;;;3.65;2.20;;;;;;;;;;5057093;28;20063;-78
2022/01/09 10:06:46;;;;;;;4.10;2.22;;;;;;;;;;5057272;28;20031;-78
2022/01/09 10:09:19;;;;;;;4.07;2.10;;;;;;;;;;5056426;28;20021;-77
2022/01/09 10:11:55;;;;;;;3.33;2.40;;;;;;;;;;5055003;28;20140;-78
2022/01/09 10:14:23;;;;;;;3.58;2.10;;;;;;;;;;5056585;28;20032;-78
2022/01/09 10:17:21;;;;;;;3.47;1.80;;;;;;;;;;5056312;28;20063;-77
2022/01/09 10:19:53;;;;;;;4.20;2.40;;;;;;;;;;5055857;28;20032;-79
2022/01/09 10:22:44;;;;;;;4.15;2.15;;;;;;;;;;5057946;28;20048;-78
2022/01/09 10:25:23;;;;;;;4.40;2.17;;;;;;;;;;5057423;28;20393;-78
2022/01/09 10:27:51;;;;;;;2.80;2.08;;;;;;;;;;5056137;28;20021;-77
2022/01/09 10:30:20;;;;;;;3.25;1.95;;;;;;;;;;5056674;28;20025;-78
2022/01/09 10:32:45;;;;;;;4.28;2.22;;;;;;;;;;5058148;28;20035;-78
2022/01/09 10:35:19;;;;;;;3.47;2.10;;;;;;;;;;5056994;28;20029;-78
2022/01/09 10:37:46;;;;;;;4.18;2.25;;;;;;;;;;5057419;28;20032;-78
2022/01/09 10:40:23;;;;;;;3.22;1.95;;;;;;;;;;5057734;28;20032;-78
2022/01/09 10:43:13;;;;;;;3.78;1.85;;;;;;;;;;5058142;28;20079;-79
2022/01/09 10:45:56;;;;;;;3.67;1.98;;;;;;;;;;5056829;28;20506;-79
2022/01/09 10:48:23;;;;;;;5.22;2.60;;;;;;;;;;5057009;28;20025;-78
2022/01/09 10:50:50;;;;;;;4.03;2.63;;;;;;;;;;5057455;28;20036;-79
2022/01/09 10:53:17;;;;;;;3.28;2.15;;;;;;;;;;5057776;28;20027;-79
2022/01/09 10:55:45;;;;;;;3.08;2.00;;;;;;;;;;5055829;28;20025;-79
2022/01/09 10:58:21;;;;;;;4.70;2.40;;;;;;;;;;5056307;28;20028;-78
2022/01/09 11:00:47;;;;;;;3.55;1.92;;;;;;;;;;5055835;28;20025;-77
2022/01/09 11:03:13;;;;;;;5.18;2.20;;;;;;;;;;5056432;28;20056;-79
2022/01/09 11:05:39;;;;;;;3.45;1.90;;;;;;;;;;5056244;28;20029;-77
2022/01/09 11:08:04;;;;;;;3.83;2.15;;;;;;;;;;5055323;28;20474;-78
2022/01/09 11:10:30;;;;;;;2.90;1.95;;;;;;;;;;5054860;28;20031;-80
2022/01/09 11:12:59;;;;;;;3.35;1.73;;;;;;;;;;5054669;28;20041;-78
2022/01/09 11:15:29;;;;;;;4.50;1.88;;;;;;;;;;5055999;28;20047;-78
2022/01/09 11:17:58;;;;;;;3.92;2.13;;;;;;;;;;5054853;28;20092;-81
2022/01/09 11:20:23;;;;;;;4.03;2.25;;;;;;;;;;5055618;28;20082;-78
2022/01/09 11:22:49;;;;;;;3.90;2.28;;;;;;;;;;5056094;28;20021;-78
2022/01/09 11:25:40;;;;;;;4.03;2.15;;;;;;;;;;5056145;28;20047;-81
2022/01/09 11:28:15;;;;;;;4.90;2.42;;;;;;;;;;5054804;28;20059;-79
2022/01/09 11:30:58;;;;;;;1.90;1.52;;;;;;;;;;5055896;28;20055;-78
2022/01/09 11:33:45;;;;;;;2.45;1.80;;;;;;;;;;5056963;28;20079;-78
2022/01/09 11:36:43;;;;;;;3.47;1.95;;;;;;;;;;5056153;28;20035;-80
2022/01/09 11:39:18;;;;;;;6.95;2.65;;;;;;;;;;5055991;28;20112;-78
2022/01/09 11:41:45;;;;;;;3.58;1.90;;;;;;;;;;5057232;28;20566;-78
2022/01/09 11:44:12;;;;;;;4.50;2.53;;;;;;;;;;5057361;28;20433;-81
2022/01/09 11:46:58;;;;;;;6.63;2.55;;;;;;;;;;5054901;28;20375;-78
2022/01/09 11:49:23;;;;;;;4.13;2.38;;;;;;;;;;5054848;28;20024;-78
2022/01/09 11:51:54;;;;;;;4.28;2.60;;;;;;;;;;5054594;28;20047;-78
2022/01/09 11:54:20;;;;;;;5.50;2.60;;;;;;;;;;5053652;28;20028;-79
2022/01/09 11:57:06;;;;;;;3.30;2.00;;;;;;;;;;5054278;28;20029;-78
2022/01/09 11:59:37;;;;;;;3.63;2.13;;;;;;;;;;5056521;28;20025;-78
2022/01/09 12:02:06;;;;;;;3.97;2.55;;;;;;;;;;5058202;28;20080;-79
2022/01/09 12:04:31;;;;;;;5.05;2.53;;;;;;;;;;5060147;28;20033;-77
2022/01/09 12:07:07;;;;;;;3.85;2.55;;;;;;;;;;5059780;28;20025;-79
2022/01/09 12:09:34;;;;;;;7.40;2.40;;;;;;;;;;5057736;28;20029;-78
2022/01/09 12:12:02;;;;;;;3.85;2.05;;;;;;;;;;5058140;28;20028;-78
2022/01/09 12:14:55;;;;;;;4.97;2.80;;;;;;;;;;5059228;28;20514;-80
2022/01/09 12:17:20;;;;;;;5.20;2.85;;;;;;;;;;5057174;28;20509;-80
2022/01/09 12:20:08;;;;;;;2.33;1.60;;;;;;;;;;5059804;28;20033;-78
2022/01/09 12:22:43;;;;;;;6.47;3.25;;;;;;;;;;5059885;28;20029;-80
2022/01/09 12:25:10;;;;;;;5.15;3.00;;;;;;;;;;5059637;28;20493;-79
2022/01/09 12:27:35;;;;;;;6.45;3.13;;;;;;;;;;5059280;28;20474;-78
2022/01/09 12:30:00;;;;;;;4.50;2.63;;;;;;;;;;5057943;28;20025;-80
2022/01/09 12:32:38;;;;;;;6.93;3.22;;;;;;;;;;5058501;28;20087;-78
2022/01/09 12:35:16;;;;;;;4.28;2.80;;;;;;;;;;5057736;28;20052;-79
2022/01/09 12:37:53;;;;;;;5.30;3.03;;;;;;;;;;5057163;28;20037;-78
2022/01/09 12:40:19;;;;;;;6.40;3.30;;;;;;;;;;5057912;28;20024;-77
2022/01/09 12:42:46;;;;;;;6.13;3.00;;;;;;;;;;5056413;28;20440;-77
2022/01/09 12:45:18;;;;;;;5.70;3.05;;;;;;;;;;5057529;28;20029;-77
2022/01/09 12:47:43;;;;;;;6.95;3.55;;;;;;;;;;5058222;28;20090;-77
2022/01/09 12:50:09;;;;;;;6.28;3.08;;;;;;;;;;5058219;28;20478;-77
2022/01/09 12:52:34;;;;;;;6.18;3.25;;;;;;;;;;5059438;28;20047;-78
2022/01/09 12:55:11;;;;;;;5.57;3.13;;;;;;;;;;5059162;28;20028;-77
2022/01/09 12:57:53;;;;;;;8.23;3.38;;;;;;;;;;5057022;28;20489;-78
2022/01/09 13:00:29;;;;;;;4.32;3.00;;;;;;;;;;5057132;28;20060;-78
2022/01/09 13:02:57;;;;;;;5.95;3.17;;;;;;;;;;5056328;28;20028;-78
2022/01/09 13:28:01;;;;;;;6.18;3.40;;;;;;;;;;4982662;28;20041;-79
2022/01/09 13:30:59;;;;;;;5.10;3.50;;;;;;;;;;4977807;28;20198;-79
2022/01/09 13:33:57;;;;;;;5.95;3.22;;;;;;;;;;4983563;28;20023;-79
2022/01/09 13:43:54;;;;;;;6.53;3.60;;;;;;;;;;5039098;28;20045;-78
2022/01/09 13:46:38;;;;;;;6.28;3.65;;;;;;;;;;4977727;28;20520;-78
2022/01/09 13:49:26;;;;;;;;;;;;;;;;;;;;;
2022/01/09 13:56:52;;;;;;;;;;;;;;;;;;;;;
2022/01/09 14:07:32;;;;;;;11.93;6.80;;;;;;;;;;4986624;28;20060;-77
2022/01/09 14:10:46;;;;;;;15.73;7.57;;;;;;;;;;4977515;28;20055;-78
2022/01/09 14:13:24;;;;;;;10.93;5.60;;;;;;;;;;4919986;29;20124;-79
2022/01/09 14:16:14;;;;;;;39.85;12.68;;;;;;;;;;4916807;29;20522;-78
2022/01/09 14:19:28;;;;;;;12.18;6.00;;;;;;;;;;4921296;29;20080;-79
2022/01/09 14:25:50;;;;;;;17.08;7.68;;;;;;;;;;4968319;28;20265;-78
2022/01/09 14:28:51;;;;;;;15.95;8.75;;;;;;;;;;4976199;28;20030;-78
2022/01/09 14:34:55;;;;;;;11.48;6.22;;;;;;;;;;4997536;28;20048;-78
2022/01/09 14:38:12;;;;;;;15.55;7.13;;;;;;;;;;5034166;28;20037;-79
2022/01/09 14:44:45;;;;;;;;;;;;;;;;;;;;;
2022/01/09 14:47:56;;;;;;;11.25;6.05;;;;;;;;;;5036283;28;20554;-78
2022/01/09 14:54:46;;;;;;;11.55;5.70;;;;;;;;;;4975215;28;20485;-77
2022/01/09 14:57:49;;;;;;;14.80;6.60;;;;;;;;;;5036694;28;20060;-78
2022/01/09 15:03:46;;;;;;;12.02;6.15;;;;;;;;;;5035241;28;20498;-78
2022/01/09 15:07:01;;;;;;;10.63;6.00;;;;;;;;;;5034585;28;20032;-79
2022/01/09 15:13:10;;;;;;;9.85;5.85;;;;;;;;;;5018709;28;20525;-79
2022/01/09 15:16:13;;;;;;;9.93;5.60;;;;;;;;;;5034053;28;20430;-79
2022/01/09 15:19:25;;;;;;;8.35;5.25;;;;;;;;;;5018535;28;20064;-79
2022/01/09 15:22:06;;;;;;;9.90;5.10;;;;;;;;;;5033655;28;20160;-79
2022/01/09 15:25:47;;;;;;;8.70;5.28;;;;;;;;;;5034977;28;20372;-79
2022/01/09 15:28:23;;;;;;;8.68;4.85;;;;;;;;;;4994278;28;20061;-76
2022/01/09 15:31:16;;;;;;;12.43;5.25;;;;;;;;;;4977043;28;20092;-78
2022/01/09 15:34:13;;;;;;;9.48;5.05;;;;;;;;;;4965045;28;20034;-79
2022/01/09 15:40:55;;;;;;;9.70;4.75;;;;;;;;;;4993336;28;20030;-78
2022/01/09 15:43:32;;;;;;;7.75;4.20;;;;;;;;;;4977738;28;20026;-78
2022/01/09 15:46:06;;;;;;;6.65;3.47;;;;;;;;;;5016137;28;20038;-78
2022/01/09 15:48:53;;;;;;;5.05;2.53;;;;;;;;;;5035392;28;20048;-79
2022/01/09 15:51:42;;;;;;;1.80;1.17;;;;;;;;;;5035046;28;20105;-78
2022/01/09 15:54:35;;;;;;;3.75;1.08;;;;;;;;;;5034654;28;20028;-78
2022/01/09 15:57:41;;;;;;;1.33;0.93;;;;;;;;;;5035186;28;20032;-78
2022/01/09 16:00:37;;;;;;;0.93;0.73;;;;;;;;;;5036583;28;20028;-79
2022/01/09 16:03:23;;;;;;;1.10;0.88;;;;;;;;;;5036427;28;20025;-79
2022/01/09 16:05:56;;;;;;;1.58;1.08;;;;;;;;;;5035803;28;20025;-79
2022/01/09 16:08:35;;;;;;;3.00;1.10;;;;;;;;;;5036416;28;20104;-79
2022/01/09 16:11:19;;;;;;;1.40;0.82;;;;;;;;;;5033509;28;20087;-78
2022/01/09 16:14:17;;;;;;;0.80;0.80;;;;;;;;;;5034884;28;20040;-78
2022/01/09 16:16:45;;;;;;;1.05;0.90;;;;;;;;;;5034076;28;20061;-79
2022/01/09 16:19:18;;;;;;;1.30;0.90;;;;;;;;;;5035817;28;20026;-78
2022/01/09 16:21:58;;;;;;;1.08;0.88;;;;;;;;;;5035304;28;20100;-78
2022/01/09 16:24:26;;;;;;;0.82;0.80;;;;;;;;;;5035103;28;20080;-78
2022/01/09 16:28:10;;;;;;;2.05;1.02;;;;;;;;;;5034736;28;20030;-78
2022/01/09 16:30:52;;;;;;;;;;;;;;;;;;;;;
2022/01/09 16:33:33;;;;;;;0.80;0.80;;;;;;;;;;5031247;28;20031;-78
2022/01/09 16:36:35;;;;;;;2.13;1.10;;;;;;;;;;5033591;28;20041;-78
2022/01/09 16:39:16;;;;;;;1.15;0.90;;;;;;;;;;5034808;28;20057;-78
2022/01/09 16:42:00;;;;;;;2.03;1.00;;;;;;;;;;5034290;28;20057;-78
2022/01/09 16:44:35;;;;;;;2.40;1.50;;;;;;;;;;5034548;28;20563;-78
2022/01/09 16:47:24;;;;;;;3.10;1.25;;;;;;;;;;5034386;28;20079;-78
2022/01/09 16:50:12;;;;;;;4.55;1.80;;;;;;;;;;5038151;28;20021;-78
2022/01/09 16:53:12;;;;;;;2.33;1.80;;;;;;;;;;5038885;28;20099;-78
2022/01/09 16:58:47;;;;;;;1.70;1.45;;;;;;;;;;5032923;28;20029;-78
2022/01/09 17:01:26;;;;;;;2.70;1.70;;;;;;;;;;5040466;28;20053;-79
2022/01/09 17:04:18;;;;;;;;;;;;;;;;;;;;;
2022/01/09 17:07:29;;;;;;;1.95;1.52;;;;;;;;;;5039881;28;20116;-78
2022/01/09 17:10:40;;;;;;;2.67;1.67;;;;;;;;;;5038588;28;20029;-78
2022/01/09 17:14:01;;;;;;;;;;;;;;;;;;;;;
2022/01/09 17:17:50;;;;;;;3.00;1.80;;;;;;;;;;5010702;28;20118;-79
2022/01/09 17:20:50;;;;;;;;;;;;;;;;;;;;;
2022/01/09 17:40:36;;;;;;;6.47;3.83;;;;;;;;;;3288634;26;20061;-79
2022/01/09 17:44:01;;;;;;;5.65;3.60;;;;;;;;;;4976629;28;20089;-78
2022/01/09 17:50:20;;;;;;;4.03;2.50;;;;;;;;;;5006746;28;20037;-79
2022/01/09 17:56:59;;;;;;;4.03;2.45;;;;;;;;;;5056576;28;20512;-79
2022/01/09 17:59:56;;;;;;;5.90;2.25;;;;;;;;;;5057016;28;20040;-79
2022/01/09 18:13:43;;;;;;;;;;;;;;;;;;;;;
2022/01/09 18:16:35;;;;;;;4.75;3.00;;;;;;;;;;4977202;28;20039;-79
2022/01/09 18:19:26;;;;;;;4.03;2.78;;;;;;;;;;4977498;28;20067;-79
2022/01/09 18:22:11;;;;;;;6.88;2.75;;;;;;;;;;4977549;28;20041;-79
2022/01/09 18:28:15;;;;;;;5.75;2.75;;;;;;;;;;5055230;22;20053;-79
2022/01/09 18:31:24;;;;;;;4.93;3.00;;;;;;;;;;5037230;28;20108;-79
2022/01/09 18:34:17;;;;;;;5.50;3.13;;;;;;;;;;5022522;28;20056;-79
2022/01/09 18:36:48;;;;;;;5.20;3.27;;;;;;;;;;5037408;28;20021;-78
2022/01/09 18:40:02;;;;;;;5.68;3.47;;;;;;;;;;5029278;28;20387;-79
2022/01/09 18:42:36;;;;;;;5.18;3.15;;;;;;;;;;5031126;28;20037;-78
2022/01/09 18:45:56;;;;;;;5.97;3.08;;;;;;;;;;5038718;28;20097;-78
2022/01/09 18:51:52;;;;;;;5.85;2.70;;;;;;;;;;4977180;28;20114;-80
2022/01/09 18:55:26;;;;;;;4.32;2.42;;;;;;;;;;5017321;28;20037;-79
2022/01/09 18:58:10;;;;;;;;;;;;;;;;;;;;;
2022/01/09 19:00:50;;;;;;;4.57;2.80;;;;;;;;;;5038603;28;20116;-79
2022/01/09 19:04:07;;;;;;;4.22;2.67;;;;;;;;;;5019934;28;20340;-80
2022/01/09 19:06:56;;;;;;;4.15;2.03;;;;;;;;;;4975959;28;20037;-79
2022/01/09 19:10:29;;;;;;;2.88;1.95;;;;;;;;;;5020096;28;20060;-78
2022/01/09 19:13:08;;;;;;;4.43;2.30;;;;;;;;;;4974436;28;20034;-81
2022/01/09 19:19:27;;;;;;;;;;;;;;;;;;;;;
2022/01/09 19:22:11;;;;;;;3.00;1.73;;;;;;;;;;4957994;29;20118;-79
2022/01/09 19:25:10;;;;;;;3.58;2.13;;;;;;;;;;4941301;29;20051;-79
2022/01/09 19:28:19;;;;;;;3.05;1.88;;;;;;;;;;4986625;28;20120;-79
2022/01/09 19:31:32;;;;;;;;;;;;;;;;;;;;;
2022/01/09 19:34:45;;;;;;;;;;;;;;;;;;;;;
2022/01/09 19:43:30;;;;;;;3.00;2.08;;;;;;;;;;4999518;28;20101;-80
2022/01/09 19:46:22;;;;;;;2.65;1.80;;;;;;;;;;5019688;28;20498;-79
2022/01/09 19:49:15;;;;;;;;;;;;;;;;;;;;;
2022/01/09 19:52:09;;;;;;;3.92;2.20;;;;;;;;;;5038742;28;20413;-79
2022/01/09 19:58:11;;;;;;;3.78;2.30;;;;;;;;;;4996225;28;20406;-79
2022/01/09 20:17:57;;;;;;;3.50;2.33;;;;;;;;;;5037730;28;20041;-80
2022/01/09 20:21:01;;;;;;;;;;;;;;;;;;;;;
2022/01/09 20:24:20;;;;;;;4.80;2.57;;;;;;;;;;5018648;28;20414;-79
2022/01/09 20:34:09;;;;;;;4.65;2.50;;;;;;;;;;5021504;28;20026;-80
2022/01/09 20:37:11;;;;;;;5.80;2.47;;;;;;;;;;5021154;28;20082;-81
2022/01/09 20:47:25;;;;;;;4.25;2.60;;;;;;;;;;4956534;28;20035;-79
2022/01/09 21:04:40;;;;;;;4.75;2.95;;;;;;;;;;5018848;28;20157;-79
2022/01/09 21:07:32;;;;;;;5.07;3.05;;;;;;;;;;5017135;28;20052;-78
2022/01/09 21:10:38;;;;;;;;;;;;;;;;;;;;;
2022/01/09 21:13:52;;;;;;;6.32;3.20;;;;;;;;;;4998491;28;20029;-80
2022/01/09 21:16:28;;;;;;;5.18;3.08;;;;;;;;;;5009546;28;20034;-78
2022/01/09 21:19:24;;;;;;;5.10;2.97;;;;;;;;;;5019097;28;20025;-78
2022/01/09 21:21:49;;;;;;;6.00;2.83;;;;;;;;;;5017488;28;20411;-79
2022/01/09 21:24:20;;;;;;;5.97;3.42;;;;;;;;;;5017286;28;20018;-79